Flight Track Log - Related Links

Times and Time Zones

All times are in EDT time to prevent confusion due to time zone crossing. See the AAL1482 flight status page for this flight to view local times or setup timezone preferences in your user account.

Time Position Orientation Groundspeed Altitude Reporting Facility
EDT Latitude Longitude Course Direction KTS MPH feet Rate Location/Type
Fri 08:38:20 PM 36.0758 -115.1869 83° East 159 183 5,000  Level Los Angeles Center
Fri 08:39:27 PM 36.0642 -115.2625 259° West 240 276 7,100 2,383 Climbing Los Angeles Center
Fri 08:40:41 PM 35.9858 -115.2794 190° South 274 315 10,600 3,132 Climbing Los Angeles Center
Fri 08:41:00 PM 35.8246 -114.9798 84° East  Level FlightAware Approximate
Fri 08:41:43 PM 35.9478 -115.1689 113° Southeast 313 360 14,200  Level Los Angeles Center
Fri 08:42:00 PM 35.8371 -114.8223 84° East  Level FlightAware Approximate
Fri 08:42:45 PM 35.9539 -115.0500 86° East 339 390 16,200  Level Los Angeles Center
Fri 08:43:00 PM 35.8502 -114.6648 83° East  Level FlightAware Approximate
Fri 08:43:47 PM 35.9483 -114.9089 93° East 396 456 18,200  Level Los Angeles Center
Fri 08:44:49 PM 35.9447 -114.7517 92° East 453 521 20,100 1,984 Climbing Los Angeles Center
Fri 08:45:51 PM 35.9411 -114.5878 92° East 476 548 22,300 1,984 Climbing Los Angeles Center
Fri 08:46:53 PM 35.9367 -114.4169 92° East 497 572 24,200 1,968 Climbing Los Angeles Center
Fri 08:47:56 PM 35.9308 -114.2036 92° East 517 595 26,400 1,968 Climbing Los Angeles Center
Fri 08:48:58 PM 35.9258 -114.0228 92° East 527 606 28,300 1,984 Climbing Los Angeles Center
Fri 08:50:00 PM 35.9150 -113.8400 94° East 533 613 30,500 2,081 Climbing Los Angeles Center
Fri 08:51:02 PM 35.8858 -113.6611 101° East 533 613 32,600 2,129 Climbing Los Angeles Center
Fri 08:52:04 PM 35.8533 -113.4664 102° East 531 611 34,900 1,984 Climbing Los Angeles Center
Fri 08:53:06 PM 35.8258 -113.2908 101° East 525 604 36,700 1,016 Climbing Los Angeles Center
Fri 08:54:08 PM 35.7983 -113.1139 101° East 525 604 37,000 145 Climbing Los Angeles Center
Fri 08:55:10 PM 35.7697 -112.9344 101° East 530 610 37,000  Level Los Angeles Center
Fri 08:56:12 PM 35.7403 -112.7550 101° East 534 615 37,000 194 Level Los Angeles Center
Fri 08:57:14 PM 35.7114 -112.5750 101° East 533 613 37,400 968 Climbing Los Angeles Center
Fri 08:58:16 PM 35.6758 -112.3631 102° East 529 609 39,000 823 Climbing Los Angeles Center
Fri 08:59:18 PM 35.6453 -112.1908 102° East 521 600 39,100 50 Climbing Los Angeles Center
Fri 09:00:16 PM 35.6158 -112.0222 102° East 514 592 39,100  Level Albuquerque Center
Fri 09:01:17 PM 35.5928 -111.8503 99° East 514 592 39,100 146 Level Albuquerque Center
Fri 09:02:19 PM 35.5872 -111.6794 92° East 506 582 39,400 439 Climbing Albuquerque Center
Fri 09:03:20 PM 35.5844 -111.5047 91° East 511 588 40,000 585 Climbing Albuquerque Center
Fri 09:04:22 PM 35.5786 -111.3286 92° East 517 595 40,600 537 Climbing Albuquerque Center
Fri 09:05:23 PM 35.5708 -111.1297 93° East 523 602 41,100 244 Climbing Albuquerque Center
Fri 09:06:25 PM 35.5647 -110.9614 93° East 520 598 41,100  Level Albuquerque Center
Fri 09:07:26 PM 35.5581 -110.7667 92° East 513 590 41,100  Level Albuquerque Center
Fri 09:08:28 PM 35.5514 -110.5994 93° East 513 590 41,100  Level Albuquerque Center
Fri 09:09:29 PM 35.5447 -110.4042 92° East 513 590 41,100  Level Albuquerque Center
Fri 09:10:31 PM 35.5375 -110.2369 93° East 513 590 41,100  Level Albuquerque Center
Fri 09:11:32 PM 35.5317 -110.0708 92° East 513 590 41,100  Level Albuquerque Center
Fri 09:12:34 PM 35.5242 -109.8758 93° East 513 590 41,100  Level Albuquerque Center
Fri 09:13:35 PM 35.5175 -109.7089 93° East 513 590 41,100  Level Albuquerque Center
Fri 09:14:37 PM 35.5094 -109.5139 93° East 514 592 41,100  Level Albuquerque Center
Fri 09:15:38 PM 35.5011 -109.3450 93° East 517 595 41,100  Level Albuquerque Center
Fri 09:16:39 PM 35.4889 -109.1508 94° East 515 593 41,100  Level Albuquerque Center
Fri 09:17:41 PM 35.4700 -108.9853 98° East 516 594 41,100  Level Albuquerque Center
Fri 09:18:42 PM 35.4492 -108.8192 99° East 517 595 41,100  Level Albuquerque Center
Fri 09:19:44 PM 35.4225 -108.6222 99° East 524 603 41,100  Level Albuquerque Center
Fri 09:20:45 PM 35.4003 -108.4542 99° East 525 604 41,100  Level Albuquerque Center
Fri 09:21:47 PM 35.3739 -108.2592 99° East 522 601 41,100  Level Albuquerque Center
Fri 09:22:48 PM 35.3511 -108.0903 99° East 525 604 41,100  Level Albuquerque Center
Fri 09:23:50 PM 35.3233 -107.8947 100° East 524 603 41,100  Level Albuquerque Center
Fri 09:24:51 PM 35.2994 -107.7278 100° East 522 601 41,100  Level Albuquerque Center
Fri 09:25:52 PM 35.2747 -107.5603 100° East 522 601 41,100  Level Albuquerque Center
Fri 09:26:54 PM 35.2453 -107.3667 100° East 525 604 41,100  Level Albuquerque Center
Fri 09:27:55 PM 35.2186 -107.1856 100° East 525 604 41,100  Level Albuquerque Center
Fri 09:28:57 PM 35.1911 -106.9997 100° East 523 602 41,100  Level Albuquerque Center
Fri 09:29:58 PM 35.1653 -106.8333 101° East 521 600 41,100  Level Albuquerque Center
Fri 09:31:00 PM 35.1425 -106.6675 99° East 518 596 41,100  Level Albuquerque Center
Fri 09:32:01 PM 35.1117 -106.4792 101° East 522 601 41,100  Level Albuquerque Center
Fri 09:33:03 PM 35.0844 -106.3039 101° East 525 604 41,100  Level Albuquerque Center
Fri 09:34:04 PM 35.0583 -106.1306 100° East 520 598 41,100  Level Albuquerque Center
Fri 09:35:05 PM 35.0311 -105.9575 101° East 520 598 41,100  Level Albuquerque Center
Fri 09:36:07 PM 34.9989 -105.7536 101° East 521 600 41,100  Level Albuquerque Center
Fri 09:37:08 PM 34.9714 -105.5786 101° East 521 600 41,100  Level Albuquerque Center
Fri 09:38:10 PM 34.9422 -105.4028 101° East 524 603 41,100  Level Albuquerque Center
Fri 09:39:11 PM 34.9114 -105.2261 102° East 528 608 41,100  Level Albuquerque Center
Fri 09:40:12 PM 34.8844 -105.0492 100° East 528 608 41,100  Level Albuquerque Center
Fri 09:41:14 PM 34.8558 -104.8739 101° East 526 605 41,100  Level Albuquerque Center
Fri 09:42:15 PM 34.8256 -104.6969 102° East 530 610 41,100  Level Albuquerque Center
Fri 09:43:17 PM 34.7975 -104.5247 101° East 522 601 41,100  Level Albuquerque Center
Fri 09:44:18 PM 34.7686 -104.3519 101° East 520 598 41,100  Level Albuquerque Center
Fri 09:45:19 PM 34.7392 -104.1792 102° East 521 600 41,100  Level Albuquerque Center
Fri 09:46:21 PM 34.7042 -103.9789 102° East 520 598 41,100  Level Albuquerque Center
Fri 09:47:22 PM 34.6744 -103.8075 102° East 518 596 41,100  Level Albuquerque Center
Fri 09:48:23 PM 34.6439 -103.6350 102° East 519 597 41,100  Level Albuquerque Center
Fri 09:49:25 PM 34.6136 -103.4614 102° East 522 601 41,100  Level Albuquerque Center
Fri 09:50:26 PM 34.5817 -103.2858 102° East 527 606 41,100  Level Albuquerque Center
Fri 09:51:27 PM 34.5478 -103.1122 103° East 527 606 41,100  Level Albuquerque Center
Fri 09:52:29 PM 34.5161 -102.9400 103° East 523 602 41,100  Level Albuquerque Center
Fri 09:53:30 PM 34.4861 -102.7564 101° East 520 598 41,100  Level Albuquerque Center
Fri 09:54:32 PM 34.4700 -102.5856 96° East 517 595 41,100  Level Albuquerque Center
Fri 09:55:33 PM 34.4522 -102.4122 97° East 517 595 41,100  Level Albuquerque Center
Fri 09:56:34 PM 34.4344 -102.2406 97° East 518 596 41,100  Level Albuquerque Center
Fri 09:57:36 PM 34.4167 -102.0672 97° East 519 597 41,100  Level Albuquerque Center
Fri 09:58:37 PM 34.3969 -101.8928 98° East 524 603 41,100  Level Albuquerque Center
Fri 09:59:38 PM 34.3733 -101.6847 98° East 524 603 41,100  Level Albuquerque Center
Fri 10:00:40 PM 34.3544 -101.5100 97° East 526 605 41,100  Level Albuquerque Center
Fri 10:01:41 PM 34.3344 -101.3367 98° East 525 604 41,100  Level Albuquerque Center
Fri 10:02:42 PM 34.3147 -101.1653 98° East 521 600 41,100  Level Albuquerque Center
Fri 10:03:44 PM 34.2942 -100.9933 98° East 521 600 41,100  Level Albuquerque Center
Fri 10:04:51 PM 34.2592 -100.7856 101° East 522 601 41,100  Level Fort Worth Center
Fri 10:05:51 PM 34.2197 -100.6208 106° East 517 595 41,100  Level Fort Worth Center
Fri 10:06:51 PM 34.1822 -100.4511 105° East 517 595 41,100 -100 Level Fort Worth Center
Fri 10:07:51 PM 34.1461 -100.3044 107° East 517 595 40,900 -800 Descending Fort Worth Center
Fri 10:08:51 PM 34.1061 -100.1375 106° East 512 589 39,500 -1,200 Descending Fort Worth Center
Fri 10:09:51 PM 34.0658 -99.9683 106° East 519 597 38,500 -1,000 Descending Fort Worth Center
Fri 10:10:51 PM 34.0275 -99.7992 105° East 519 597 37,500 -700 Descending Fort Worth Center
Fri 10:11:51 PM 33.9886 -99.6328 106° East 519 597 37,100 -200 Descending Fort Worth Center
Fri 10:12:51 PM 33.9478 -99.4717 107° East 519 597 37,100 -500 Level Fort Worth Center
Fri 10:13:51 PM 33.9047 -99.2878 106° East 519 597 36,100 -1,850 Descending Fort Worth Center
Fri 10:14:51 PM 33.8631 -99.1244 107° East 519 597 33,400 -2,950 Descending Fort Worth Center
Fri 10:15:51 PM 33.8217 -98.9561 106° East 519 597 30,200 -2,800 Descending Fort Worth Center
Fri 10:16:51 PM 33.7669 -98.8003 113° Southeast 513 590 27,800 -1,850 Descending Fort Worth Center
Fri 10:17:51 PM 33.7144 -98.6444 112° Southeast 508 585 26,500 -1,300 Descending Fort Worth Center
Fri 10:18:51 PM 33.6658 -98.4867 110° East 502 578 25,200 -1,250 Descending Fort Worth Center
Fri 10:19:51 PM 33.6189 -98.3364 111° Southeast 495 570 24,000 -1,450 Descending Fort Worth Center
Fri 10:20:51 PM 33.5678 -98.1889 113° Southeast 489 563 22,300 -2,150 Descending Fort Worth Center
Fri 10:21:51 PM 33.5164 -98.0439 113° Southeast 477 549 19,700 -2,700 Descending Fort Worth Center
Fri 10:22:51 PM 33.4711 -97.9064 112° Southeast 450 518 16,900 -2,650 Descending Fort Worth Center
Fri 10:23:51 PM 33.4256 -97.7744 112° Southeast 440 506 14,400 -1,950 Descending Fort Worth Center
Fri 10:24:51 PM 33.3842 -97.6497 112° Southeast 407 468 13,000 -1,550 Descending Fort Worth Center
Fri 10:25:51 PM 33.3175 -97.5600 132° Southeast 358 412 11,300 -1,000 Descending Fort Worth Center
Fri 10:26:51 PM 33.2508 -97.4856 137° Southeast 345 397 11,000 -150 Descending Fort Worth Center
Fri 10:27:51 PM 33.1925 -97.4208 137° Southeast 318 366 11,000  Level Fort Worth Center
Fri 10:28:51 PM 33.1256 -97.3414 135° Southeast 318 366 11,000  Level Fort Worth Center
Fri 10:29:51 PM 33.0714 -97.2772 135° Southeast 311 358 11,000  Level Fort Worth Center
Fri 10:30:51 PM 33.0086 -97.2003 134° Southeast 305 351 11,000  Level Fort Worth Center
Fri 10:31:51 PM 32.9458 -97.1658 155° Southeast 279 321 11,000 -550 Level Fort Worth Center
Fri 10:32:51 PM 32.8811 -97.1686 182° South 244 281 9,900 -1,350 Descending Fort Worth Center
Fri 10:33:51 PM 32.8122 -97.1686 180° South 250 288 8,300 -1,950 Descending Fort Worth Center
Fri 10:34:51 PM 32.7372 -97.1689 180° South 250 288 6,000 -2,300 Descending Fort Worth Center

Login

Don't have an account? Register now (free) for customized features, flight alerts, and more!